Latest METAR Data for Chesapeake Regional Airport (KCPK)
Select Airport:
Chesapeake Regional Airport
Last updated: 12 minutes ago
Flight conditions: IFR
Visibility: 2.5 statute miles
Sky Conditions: Clear
Weather conditions: mist
Wind From:
Wind speed: 0 knots (0 mph)
Temperature: 22.1°C (71.78°F)
Dew Point: 21.5°C (70.7°F)
Altimiter setting: 30.09 in-hg
WX phone: 1-757-204-4290
WX freq: 123.675 MHz
No wind, all runways available.
If at an uncontrolled airport, be sure to listen carefully to the CTAF for the runway(s) in use.
KCPK 160435Z AUTO 00000KT 2 1/2SM BR CLR 22/22 A3009 RMK AO2 T02210215
FOR REFERENCE USE ONLY, DATA MAY NOT BE CURRENT.
ALWAYS CHECK FOR UP TO DATE INFORMATION.